createdAt,value
2022-09-29T00:01:59.020Z,3.58
2022-09-29T00:04:25.483Z,3.57
2022-09-29T00:06:51.897Z,3.30
2022-09-29T00:09:18.393Z,3.40
2022-09-29T00:11:44.834Z,4.00
2022-09-29T00:14:11.277Z,3.53
2022-09-29T00:16:37.766Z,3.10
2022-09-29T00:19:05.072Z,3.30
2022-09-29T00:21:31.444Z,3.40
2022-09-29T00:24:00.874Z,3.58
2022-09-29T00:26:27.291Z,4.13
2022-09-29T00:28:58.560Z,3.40
2022-09-29T00:31:26.997Z,3.58
2022-09-29T00:33:53.892Z,3.40
2022-09-29T00:36:22.805Z,3.17
2022-09-29T00:38:52.653Z,3.08
2022-09-29T00:41:25.387Z,3.10
2022-09-29T00:43:51.747Z,3.13
2022-09-29T00:46:44.140Z,3.38
2022-09-29T00:49:17.115Z,3.67
2022-09-29T00:51:53.637Z,3.42
2022-09-29T00:54:21.130Z,3.27
2022-09-29T00:56:50.050Z,3.72
2022-09-29T00:59:23.809Z,3.47
2022-09-29T01:01:50.417Z,3.30
2022-09-29T01:04:19.731Z,3.53
2022-09-29T01:06:51.594Z,3.53
2022-09-29T01:09:21.211Z,2.70
2022-09-29T01:11:47.799Z,3.45
2022-09-29T01:14:16.121Z,3.33
2022-09-29T01:16:42.927Z,3.20
2022-09-29T01:20:01.963Z,3.33
2022-09-29T01:22:46.857Z,3.17
2022-09-29T01:25:35.585Z,3.10
2022-09-29T01:28:35.874Z,3.22
2022-09-29T01:31:08.343Z,3.50
2022-09-29T01:34:10.056Z,3.50
2022-09-29T01:37:14.157Z,3.65
2022-09-29T01:39:53.710Z,3.25
2022-09-29T01:42:29.360Z,3.10
2022-09-29T01:45:26.059Z,3.65
2022-09-29T01:47:58.860Z,3.30
2022-09-29T01:50:51.196Z,4.05
2022-09-29T01:53:22.888Z,3.63
2022-09-29T01:55:53.273Z,3.08
2022-09-29T01:58:30.462Z,3.15
2022-09-29T02:01:02.188Z,3.40
2022-09-29T02:03:37.937Z,3.33
2022-09-29T02:06:20.548Z,2.72
2022-09-29T02:08:53.724Z,2.97
2022-09-29T02:11:20.542Z,2.72
2022-09-29T02:14:02.036Z,3.10
2022-09-29T02:16:37.330Z,2.65
2022-09-29T02:19:19.738Z,2.65
2022-09-29T02:21:46.516Z,2.35
2022-09-29T02:24:13.082Z,2.80
2022-09-29T02:26:41.513Z,2.77
2022-09-29T02:29:08.973Z,2.40
2022-09-29T02:31:38.450Z,2.60
2022-09-29T02:34:08.965Z,2.88
2022-09-29T02:36:50.623Z,2.38
2022-09-29T02:39:56.390Z,2.90
2022-09-29T02:42:40.646Z,2.05
2022-09-29T02:45:23.678Z,3.15
2022-09-29T02:48:13.431Z,2.63
2022-09-29T02:50:52.085Z,2.95
2022-09-29T02:53:30.463Z,2.57
2022-09-29T02:56:10.697Z,2.65
2022-09-29T02:58:51.526Z,2.47
2022-09-29T03:01:18.038Z,2.42
2022-09-29T03:03:44.564Z,3.28
2022-09-29T03:06:13.380Z,3.00
2022-09-29T03:08:39.864Z,2.80
2022-09-29T03:11:06.316Z,2.90
2022-09-29T03:13:32.702Z,3.10
2022-09-29T03:15:59.271Z,3.40
2022-09-29T03:18:25.914Z,3.47
2022-09-29T03:20:55.180Z,3.63
2022-09-29T03:23:22.002Z,3.83
2022-09-29T03:25:48.557Z,2.90
2022-09-29T03:28:16.558Z,3.28
2022-09-29T03:30:43.517Z,3.20
2022-09-29T03:33:09.959Z,2.75
2022-09-29T03:35:36.394Z,3.35
2022-09-29T03:38:02.907Z,3.10
2022-09-29T03:40:29.685Z,3.08
2022-09-29T03:42:56.145Z,3.17
2022-09-29T03:45:22.655Z,2.83
2022-09-29T03:47:49.212Z,3.28
2022-09-29T03:50:15.826Z,3.05
2022-09-29T03:52:42.483Z,3.30
2022-09-29T03:55:09.410Z,3.37
2022-09-29T03:57:35.947Z,2.90
2022-09-29T04:00:02.426Z,2.85
2022-09-29T04:02:28.879Z,3.00
2022-09-29T04:04:55.412Z,2.70
2022-09-29T04:07:21.821Z,3.13
2022-09-29T04:09:48.377Z,2.92
2022-09-29T04:12:14.797Z,2.67
2022-09-29T04:14:41.206Z,3.60
2022-09-29T04:17:07.606Z,3.40
2022-09-29T04:19:34.228Z,3.43
2022-09-29T04:22:00.634Z,3.60
2022-09-29T04:24:27.221Z,2.92
2022-09-29T04:26:53.699Z,3.47
2022-09-29T04:29:20.208Z,3.63
2022-09-29T04:31:46.743Z,3.77
2022-09-29T04:34:13.187Z,3.92
2022-09-29T04:36:39.760Z,3.97
2022-09-29T04:39:06.815Z,3.72
2022-09-29T04:41:36.008Z,4.97
2022-09-29T04:44:02.689Z,3.83
2022-09-29T04:46:29.559Z,3.67
2022-09-29T04:48:56.020Z,3.83
2022-09-29T04:51:22.505Z,3.45
2022-09-29T04:53:48.977Z,3.70
2022-09-29T04:56:15.368Z,3.93
2022-09-29T04:58:41.905Z,3.42
2022-09-29T05:01:12.771Z,3.53
2022-09-29T05:03:39.838Z,3.15
2022-09-29T05:06:06.966Z,3.70
2022-09-29T05:08:33.436Z,3.83
2022-09-29T05:11:04.899Z,3.03
2022-09-29T05:13:31.383Z,3.13
2022-09-29T05:15:58.035Z,3.25
2022-09-29T05:18:25.500Z,3.75
2022-09-29T05:21:15.823Z,4.03
2022-09-29T05:23:38.378Z,3.50
2022-09-29T05:26:07.020Z,3.65
2022-09-29T05:28:33.469Z,4.60
2022-09-29T05:31:05.004Z,4.63
2022-09-29T05:33:31.448Z,5.30
2022-09-29T05:35:58.204Z,4.50
2022-09-29T05:38:25.549Z,3.53
2022-09-29T05:40:52.893Z,4.13
2022-09-29T05:43:20.155Z,4.20
2022-09-29T05:45:46.715Z,3.70
2022-09-29T05:48:13.194Z,3.50
2022-09-29T05:50:42.148Z,3.80
2022-09-29T05:53:09.007Z,4.07
2022-09-29T05:55:39.024Z,3.55
2022-09-29T05:58:06.454Z,3.73
2022-09-29T06:00:33.291Z,3.90
2022-09-29T06:03:00.271Z,4.50
2022-09-29T06:05:27.546Z,4.85
2022-09-29T06:07:54.402Z,4.50
2022-09-29T06:10:20.961Z,4.30
2022-09-29T06:12:47.416Z,4.55
2022-09-29T06:15:14.341Z,5.20
2022-09-29T06:17:40.744Z,4.88
2022-09-29T06:20:07.667Z,4.60
2022-09-29T06:22:34.101Z,5.10
2022-09-29T06:25:00.519Z,5.35
2022-09-29T06:27:27.041Z,5.35
2022-09-29T06:29:53.485Z,4.95
2022-09-29T06:32:20.045Z,5.80
2022-09-29T06:35:05.207Z,6.27
2022-09-29T06:37:34.748Z,4.82
2022-09-29T06:40:10.724Z,5.57
2022-09-29T06:42:38.548Z,5.93
2022-09-29T06:45:05.850Z,4.88
2022-09-29T06:47:32.301Z,4.87
2022-09-29T06:50:08.944Z,5.10
2022-09-29T06:53:01.126Z,5.45
2022-09-29T06:55:28.977Z,5.13
2022-09-29T06:57:57.887Z,5.38
2022-09-29T07:00:26.469Z,6.23
2022-09-29T07:02:52.953Z,5.65
2022-09-29T07:05:19.958Z,6.40
2022-09-29T07:07:52.004Z,6.00
2022-09-29T07:10:19.756Z,5.50
2022-09-29T07:12:46.987Z,5.00
2022-09-29T07:15:14.096Z,4.47
2022-09-29T07:17:40.533Z,5.20
2022-09-29T07:20:07.586Z,5.60
2022-09-29T07:22:34.106Z,4.57
2022-09-29T07:25:00.542Z,5.03
2022-09-29T07:27:26.941Z,5.30
2022-09-29T07:30:03.105Z,5.93
2022-09-29T07:32:32.593Z,4.95
2022-09-29T07:34:59.962Z,6.22
2022-09-29T07:37:30.463Z,5.77
2022-09-29T07:39:57.187Z,6.32
2022-09-29T07:42:23.638Z,7.90
2022-09-29T07:44:52.377Z,8.35
2022-09-29T07:47:19.201Z,8.55
2022-09-29T07:49:45.600Z,9.00
2022-09-29T07:52:13.689Z,8.32
2022-09-29T07:54:40.084Z,9.38
2022-09-29T07:57:06.539Z,9.45
2022-09-29T07:59:33.024Z,10.27
2022-09-29T08:01:59.807Z,9.60
2022-09-29T08:04:26.282Z,9.93
2022-09-29T08:06:52.730Z,9.48
2022-09-29T08:09:19.528Z,10.63
2022-09-29T08:11:46.614Z,10.00
2022-09-29T08:14:13.473Z,9.80
2022-09-29T08:16:40.268Z,10.90
2022-09-29T08:19:07.781Z,10.50
2022-09-29T08:21:38.230Z,10.25
2022-09-29T08:24:05.550Z,10.05
2022-09-29T08:26:42.642Z,10.33
2022-09-29T08:29:15.592Z,11.10
2022-09-29T08:31:43.836Z,9.93
2022-09-29T08:34:10.486Z,13.63
2022-09-29T08:36:36.883Z,11.52
2022-09-29T08:39:04.267Z,11.97
2022-09-29T08:42:04.728Z,10.73
2022-09-29T08:44:39.416Z,11.15
2022-09-29T08:47:17.168Z,11.95
2022-09-29T08:49:48.840Z,12.63
2022-09-29T08:52:20.475Z,12.53
2022-09-29T08:54:51.227Z,12.73
2022-09-29T08:57:19.876Z,13.20
2022-09-29T08:59:55.834Z,12.38
2022-09-29T09:02:59.615Z,12.48
2022-09-29T09:06:13.704Z,14.00
2022-09-29T09:09:07.342Z,13.02
2022-09-29T09:12:06.462Z,13.75
2022-09-29T09:14:55.445Z,13.70
2022-09-29T09:17:50.742Z,14.55
2022-09-29T09:21:04.643Z,14.47
2022-09-29T09:23:56.952Z,15.57
2022-09-29T09:26:37.911Z,15.60
2022-09-29T09:29:18.616Z,15.57
2022-09-29T09:31:54.448Z,15.32
2022-09-29T09:34:40.855Z,15.03
2022-09-29T09:37:34.426Z,15.35
2022-09-29T09:40:12.701Z,16.25
2022-09-29T09:42:44.752Z,16.20
2022-09-29T09:45:23.908Z,16.75
2022-09-29T09:47:57.363Z,15.93
2022-09-29T09:50:28.105Z,16.98
2022-09-29T09:53:15.968Z,16.98
2022-09-29T09:55:43.287Z,16.63
2022-09-29T09:58:18.878Z,17.75
2022-09-29T10:00:51.162Z,17.90
2022-09-29T10:03:18.000Z,17.00
2022-09-29T10:05:47.414Z,16.35
2022-09-29T10:08:38.322Z,16.95
2022-09-29T10:11:19.913Z,18.02
2022-09-29T10:13:47.222Z,17.37
2022-09-29T10:16:23.957Z,18.92
2022-09-29T10:18:53.783Z,17.55
2022-09-29T10:21:40.561Z,17.02
2022-09-29T10:24:23.656Z,17.52
2022-09-29T10:26:53.137Z,17.80
2022-09-29T10:29:29.538Z,17.67
2022-09-29T10:32:06.203Z,16.85
2022-09-29T10:34:35.885Z,19.08
2022-09-29T10:37:05.627Z,18.83
2022-09-29T10:39:41.188Z,17.27
2022-09-29T10:42:16.796Z,17.85
2022-09-29T10:44:49.524Z,17.00
2022-09-29T10:47:15.943Z,16.58
2022-09-29T10:49:42.472Z,17.17
2022-09-29T10:52:21.160Z,15.40
2022-09-29T10:55:03.915Z,14.30
2022-09-29T10:57:34.054Z,15.43
2022-09-29T11:00:01.183Z,15.43
2022-09-29T11:02:40.272Z,10.73
2022-09-29T11:05:20.004Z,11.43
2022-09-29T11:07:50.272Z,12.57
2022-09-29T11:10:28.979Z,11.63
2022-09-29T11:12:58.958Z,10.70
2022-09-29T11:15:39.015Z,10.82
2022-09-29T11:18:23.073Z,10.27
2022-09-29T11:21:02.508Z,8.52
2022-09-29T11:23:57.457Z,8.05
2022-09-29T11:26:24.446Z,8.27
2022-09-29T11:29:08.538Z,9.90
2022-09-29T11:31:56.921Z,8.77
2022-09-29T11:34:33.083Z,7.32
2022-09-29T11:37:11.392Z,7.53
2022-09-29T11:39:46.096Z,6.95
2022-09-29T11:42:37.310Z,6.72
2022-09-29T11:45:08.263Z,7.73
2022-09-29T11:47:56.339Z,9.00
2022-09-29T11:50:41.883Z,3.33
2022-09-29T11:53:28.351Z,2.95
2022-09-29T11:56:03.776Z,4.40
2022-09-29T11:58:52.830Z,3.03
2022-09-29T12:01:26.326Z,3.70
2022-09-29T12:03:56.969Z,5.30
2022-09-29T12:06:47.625Z,4.88
2022-09-29T12:09:57.599Z,4.97
2022-09-29T12:12:45.381Z,5.03
2022-09-29T12:15:45.025Z,5.13
2022-09-29T12:18:16.696Z,6.13
2022-09-29T12:20:47.210Z,6.05
2022-09-29T12:23:16.157Z,6.43
2022-09-29T12:26:11.365Z,6.00
2022-09-29T12:29:04.271Z,6.38
2022-09-29T12:31:49.728Z,6.10
2022-09-29T12:34:25.388Z,5.50
2022-09-29T12:37:20.401Z,5.30
2022-09-29T12:39:56.338Z,5.07
2022-09-29T12:42:44.168Z,4.45
2022-09-29T12:45:35.296Z,4.18
2022-09-29T12:48:23.400Z,3.33
2022-09-29T12:51:27.378Z,3.03
2022-09-29T12:54:15.850Z,3.70
2022-09-29T12:56:48.795Z,3.40
2022-09-29T12:59:28.245Z,3.10
2022-09-29T13:01:57.910Z,2.85
2022-09-29T13:04:43.003Z,3.08
2022-09-29T13:07:43.277Z,2.40
2022-09-29T13:10:40.010Z,3.08
2022-09-29T13:13:15.469Z,2.45
2022-09-29T13:16:12.998Z,2.53
2022-09-29T13:19:33.900Z,2.50
2022-09-29T13:22:22.186Z,2.80
2022-09-29T13:25:01.966Z,3.03
2022-09-29T13:27:37.794Z,2.53
2022-09-29T13:30:17.932Z,3.20
2022-09-29T13:33:09.844Z,2.85
2022-09-29T13:35:48.543Z,3.03
2022-09-29T13:38:20.809Z,3.53
2022-09-29T13:41:21.532Z,3.42
2022-09-29T13:43:50.706Z,2.90
2022-09-29T13:46:29.705Z,2.90
2022-09-29T13:49:13.999Z,3.47
2022-09-29T13:51:52.714Z,3.53
2022-09-29T13:54:25.502Z,2.85
2022-09-29T13:57:12.225Z,4.18
2022-09-29T13:59:41.539Z,5.47
2022-09-29T14:02:45.109Z,3.53
2022-09-29T14:05:23.696Z,3.22
2022-09-29T14:08:16.722Z,2.38
2022-09-29T14:10:47.289Z,1.92
2022-09-29T14:13:29.668Z,2.15
2022-09-29T14:16:14.636Z,3.63
2022-09-29T14:18:46.753Z,2.10
2022-09-29T14:21:34.767Z,1.98
2022-09-29T14:24:01.225Z,2.33
2022-09-29T14:26:51.293Z,2.03
2022-09-29T14:29:28.900Z,1.93
2022-09-29T14:31:59.783Z,2.30
2022-09-29T14:34:33.691Z,1.80
2022-09-29T14:37:01.089Z,2.15
2022-09-29T14:39:27.894Z,1.90
2022-09-29T14:41:54.475Z,2.00
2022-09-29T14:45:01.597Z,2.13
2022-09-29T14:47:52.524Z,1.67
2022-09-29T14:51:05.328Z,2.00
2022-09-29T14:53:41.947Z,1.60
2022-09-29T14:56:34.649Z,1.60
2022-09-29T14:59:25.348Z,1.75
2022-09-29T15:02:21.627Z,1.60
2022-09-29T15:04:48.674Z,1.50
2022-09-29T15:07:18.514Z,1.52
2022-09-29T15:09:48.594Z,1.20
2022-09-29T15:12:20.233Z,1.30
2022-09-29T15:14:46.806Z,1.00
2022-09-29T15:17:30.515Z,0.70
2022-09-29T15:20:00.019Z,0.68
2022-09-29T15:22:54.964Z,0.60
2022-09-29T15:25:44.094Z,0.52
2022-09-29T15:28:39.810Z,0.60
2022-09-29T15:31:11.157Z,0.50
2022-09-29T15:33:41.300Z,0.50
2022-09-29T15:36:18.862Z,0.67
2022-09-29T15:38:45.930Z,0.80
2022-09-29T15:41:13.114Z,0.95
2022-09-29T15:43:42.168Z,0.70
2022-09-29T15:46:21.463Z,0.75
2022-09-29T15:49:11.427Z,0.70
2022-09-29T15:51:38.978Z,0.80
2022-09-29T15:54:10.393Z,0.57
2022-09-29T15:56:56.503Z,0.68
2022-09-29T15:59:41.940Z,0.60
2022-09-29T16:02:18.576Z,0.63
2022-09-29T16:04:48.730Z,0.80
2022-09-29T16:07:23.969Z,1.10
2022-09-29T16:09:51.710Z,0.90
2022-09-29T16:12:21.057Z,0.98
2022-09-29T16:14:50.055Z,0.70
2022-09-29T16:17:17.028Z,0.70
2022-09-29T16:19:48.331Z,1.10
2022-09-29T16:22:23.827Z,0.77
2022-09-29T16:25:07.952Z,0.90
2022-09-29T16:27:57.528Z,0.93
2022-09-29T16:30:35.930Z,0.98
2022-09-29T16:33:25.293Z,1.02
2022-09-29T16:35:54.766Z,0.85
2022-09-29T16:38:41.342Z,0.80
2022-09-29T16:41:28.129Z,0.70
2022-09-29T16:44:13.163Z,0.93
2022-09-29T16:46:57.860Z,0.70
2022-09-29T16:49:35.443Z,1.00
2022-09-29T16:52:10.940Z,1.02
2022-09-29T16:54:43.777Z,1.20
2022-09-29T16:57:19.161Z,1.30
2022-09-29T16:59:46.339Z,0.82
2022-09-29T17:04:40.449Z,1.10
2022-09-29T17:07:13.313Z,0.90
2022-09-29T17:09:42.695Z,1.08
2022-09-29T17:12:13.028Z,1.00
2022-09-29T17:14:39.616Z,1.00
2022-09-29T17:17:06.540Z,1.05
2022-09-29T17:19:33.087Z,1.33
2022-09-29T17:21:59.974Z,1.20
2022-09-29T17:24:29.366Z,1.20
2022-09-29T17:27:14.537Z,1.27
2022-09-29T17:29:41.287Z,1.25
2022-09-29T17:32:14.300Z,1.30
2022-09-29T17:34:40.747Z,1.23
2022-09-29T17:37:10.876Z,1.30
2022-09-29T17:39:37.552Z,1.63
2022-09-29T17:42:04.027Z,2.67
2022-09-29T17:44:30.950Z,3.40
2022-09-29T17:47:11.266Z,4.35
2022-09-29T17:49:50.024Z,3.78
2022-09-29T17:52:16.894Z,2.95
2022-09-29T17:54:43.428Z,2.88
2022-09-29T17:57:20.435Z,2.90
2022-09-29T17:59:47.203Z,2.80
2022-09-29T18:02:13.997Z,2.38
2022-09-29T18:04:48.085Z,2.88
2022-09-29T18:07:15.613Z,2.42
2022-09-29T18:09:43.305Z,2.90
2022-09-29T18:12:09.879Z,3.00
2022-09-29T18:14:37.065Z,2.80
2022-09-29T18:17:05.775Z,2.42
2022-09-29T18:19:35.830Z,2.80
2022-09-29T18:22:06.060Z,3.23
2022-09-29T18:24:33.467Z,3.20
2022-09-29T18:27:00.016Z,3.53
2022-09-29T18:29:26.719Z,3.70
2022-09-29T18:31:53.182Z,4.18
2022-09-29T18:34:22.068Z,3.30
2022-09-29T18:36:48.927Z,3.90
2022-09-29T18:39:15.495Z,4.07
2022-09-29T18:41:41.948Z,3.85
2022-09-29T18:44:15.432Z,4.10
2022-09-29T18:46:43.701Z,5.30
2022-09-29T18:49:14.405Z,4.85
2022-09-29T18:51:41.313Z,4.90
2022-09-29T18:54:08.425Z,5.05
2022-09-29T18:56:35.003Z,4.97
2022-09-29T18:59:03.648Z,4.97
2022-09-29T19:01:30.254Z,4.60
2022-09-29T19:03:56.887Z,5.40
2022-09-29T19:06:23.439Z,4.32
2022-09-29T19:08:52.249Z,5.30
2022-09-29T19:11:25.503Z,4.87
2022-09-29T19:13:55.244Z,5.28
2022-09-29T19:16:23.259Z,6.00
2022-09-29T19:18:49.840Z,6.72
2022-09-29T19:21:16.554Z,5.85
2022-09-29T19:23:43.644Z,5.93
2022-09-29T19:26:14.980Z,6.88
2022-09-29T19:28:41.410Z,6.22
2022-09-29T19:31:11.795Z,5.90
2022-09-29T19:33:40.131Z,6.13
2022-09-29T19:36:08.818Z,5.27
2022-09-29T19:38:36.770Z,4.70
2022-09-29T19:41:04.442Z,5.05
2022-09-29T19:43:32.024Z,5.30
2022-09-29T19:45:58.459Z,4.97
2022-09-29T19:48:24.975Z,4.77
2022-09-29T19:51:17.252Z,4.22
2022-09-29T19:53:47.235Z,4.40
2022-09-29T19:56:16.995Z,4.68
2022-09-29T19:58:43.561Z,4.13
2022-09-29T20:01:11.606Z,4.73
2022-09-29T20:03:38.210Z,4.10
2022-09-29T20:06:09.779Z,4.63
2022-09-29T20:08:36.490Z,4.60
2022-09-29T20:11:08.580Z,4.70
2022-09-29T20:13:35.199Z,4.90
2022-09-29T20:16:02.273Z,4.78
2022-09-29T20:18:28.714Z,6.25
2022-09-29T20:20:55.717Z,5.60
2022-09-29T20:23:24.271Z,5.82
2022-09-29T20:25:59.160Z,5.13
2022-09-29T20:28:26.190Z,5.25
2022-09-29T20:31:00.129Z,5.28
2022-09-29T20:33:27.267Z,5.18
2022-09-29T20:35:53.696Z,4.75
2022-09-29T20:38:20.356Z,5.40
2022-09-29T20:40:48.056Z,5.20
2022-09-29T20:43:14.758Z,5.22
2022-09-29T20:45:41.784Z,5.25
2022-09-29T20:48:08.451Z,5.20
2022-09-29T20:50:35.220Z,5.17
2022-09-29T20:53:01.655Z,5.65
2022-09-29T20:55:28.112Z,5.53
2022-09-29T20:57:57.913Z,6.40
2022-09-29T21:00:27.310Z,5.93
2022-09-29T21:02:53.798Z,6.63
2022-09-29T21:05:20.263Z,5.75
2022-09-29T21:07:46.692Z,6.40
2022-09-29T21:10:13.166Z,5.88
2022-09-29T21:12:39.673Z,5.57
2022-09-29T21:15:06.414Z,4.70
2022-09-29T21:17:32.891Z,4.57
2022-09-29T21:19:59.393Z,4.97
2022-09-29T21:22:27.918Z,4.55
2022-09-29T21:24:54.906Z,4.38
2022-09-29T21:27:21.479Z,4.10
2022-09-29T21:29:48.036Z,3.47
2022-09-29T21:32:14.568Z,3.33
2022-09-29T21:34:41.091Z,3.35
2022-09-29T21:37:07.756Z,3.05
2022-09-29T21:39:34.361Z,3.53
2022-09-29T21:42:00.845Z,3.42
2022-09-29T21:44:27.338Z,3.17
2022-09-29T21:46:53.883Z,3.30
2022-09-29T21:49:20.741Z,3.22
2022-09-29T21:51:49.344Z,3.77
2022-09-29T21:54:21.601Z,3.20
2022-09-29T21:56:49.335Z,3.20
2022-09-29T21:59:18.219Z,3.28
2022-09-29T22:01:47.200Z,3.17
2022-09-29T22:04:14.690Z,2.70
2022-09-29T22:06:44.500Z,3.05
2022-09-29T22:09:18.008Z,2.83
2022-09-29T22:11:45.407Z,3.22
2022-09-29T22:14:13.422Z,3.10
2022-09-29T22:16:40.302Z,3.17
2022-09-29T22:19:23.701Z,3.17
2022-09-29T22:21:54.039Z,3.25
2022-09-29T22:24:21.109Z,3.45
2022-09-29T22:26:47.660Z,2.72
2022-09-29T22:29:14.106Z,2.80
2022-09-29T22:31:41.082Z,3.03
2022-09-29T22:34:08.277Z,2.50
2022-09-29T22:36:35.177Z,2.38
2022-09-29T22:39:03.410Z,2.80
2022-09-29T22:41:30.653Z,2.43
2022-09-29T22:43:59.293Z,2.10
2022-09-29T22:46:27.728Z,2.67
2022-09-29T22:48:54.643Z,2.83
2022-09-29T22:51:21.325Z,2.72
2022-09-29T22:53:48.253Z,2.20
2022-09-29T22:56:18.524Z,2.95
2022-09-29T22:58:45.490Z,3.25
2022-09-29T23:01:15.277Z,2.70
2022-09-29T23:03:43.522Z,2.70
2022-09-29T23:06:10.286Z,2.67
2022-09-29T23:08:37.486Z,3.03
2022-09-29T23:11:07.386Z,2.70
2022-09-29T23:13:36.934Z,2.72
2022-09-29T23:16:12.545Z,2.70
2022-09-29T23:18:45.714Z,2.23
2022-09-29T23:21:14.726Z,2.15
2022-09-29T23:23:41.517Z,2.10
2022-09-29T23:26:08.193Z,2.20
2022-09-29T23:28:34.692Z,2.38
2022-09-29T23:31:08.078Z,2.60
2022-09-29T23:33:35.044Z,2.60
2022-09-29T23:36:09.927Z,2.00
2022-09-29T23:38:59.916Z,2.28
2022-09-29T23:41:27.395Z,1.80
2022-09-29T23:43:57.785Z,1.90
2022-09-29T23:46:26.721Z,2.00
2022-09-29T23:48:53.467Z,2.00
2022-09-29T23:51:20.755Z,1.73
2022-09-29T23:53:47.281Z,2.00
2022-09-29T23:56:13.779Z,2.03
2022-09-29T23:58:40.295Z,1.70
